createdAt,value
2023-04-18T00:00:43.827Z,7.31
2023-04-18T00:01:43.889Z,7.32
2023-04-18T00:02:43.912Z,7.34
2023-04-18T00:03:43.999Z,7.32
2023-04-18T00:04:43.951Z,7.31
2023-04-18T00:05:43.780Z,7.32
2023-04-18T00:06:43.786Z,7.34
2023-04-18T00:07:43.764Z,7.35
2023-04-18T00:08:43.731Z,7.38
2023-04-18T00:09:44.787Z,7.37
2023-04-18T00:10:43.744Z,7.38
2023-04-18T00:11:43.737Z,7.40
2023-04-18T00:12:43.677Z,7.38
2023-04-18T00:13:43.681Z,7.38
2023-04-18T00:14:43.683Z,7.38
2023-04-18T00:15:43.697Z,7.38
2023-04-18T00:16:43.696Z,7.38
2023-04-18T00:17:43.715Z,7.38
2023-04-18T00:18:43.615Z,7.37
2023-04-18T00:19:43.656Z,7.34
2023-04-18T00:20:43.585Z,7.29
2023-04-18T00:21:43.617Z,7.23
2023-04-18T00:22:43.573Z,7.23
2023-04-18T00:23:43.593Z,7.24
2023-04-18T00:24:43.547Z,7.24
2023-04-18T00:25:43.579Z,7.27
2023-04-18T00:26:43.562Z,7.29
2023-04-18T00:27:43.533Z,7.31
2023-04-18T00:28:43.525Z,7.27
2023-04-18T00:29:43.530Z,7.29
2023-04-18T00:30:43.548Z,7.27
2023-04-18T00:31:43.478Z,7.27
2023-04-18T00:32:43.496Z,7.29
2023-04-18T00:33:43.492Z,7.29
2023-04-18T00:34:43.433Z,7.29
2023-04-18T00:35:43.454Z,7.26
2023-04-18T00:36:43.440Z,7.26
2023-04-18T00:37:43.422Z,7.24
2023-04-18T00:38:43.446Z,7.23
2023-04-18T00:39:43.399Z,7.16
2023-04-18T00:40:43.382Z,7.15
2023-04-18T00:41:43.440Z,7.15
2023-04-18T00:42:43.338Z,7.15
2023-04-18T00:43:43.347Z,7.15
2023-04-18T00:44:43.339Z,7.19
2023-04-18T00:45:43.378Z,7.19
2023-04-18T00:46:43.299Z,7.22
2023-04-18T00:47:43.367Z,7.20
2023-04-18T00:48:43.275Z,7.20
2023-04-18T00:49:43.328Z,7.20
2023-04-18T00:50:43.276Z,7.20
2023-04-18T00:51:43.298Z,7.19
2023-04-18T00:52:43.266Z,7.16
2023-04-18T00:53:43.264Z,7.13
2023-04-18T00:54:43.229Z,7.13
2023-04-18T00:55:43.254Z,7.15
2023-04-18T00:56:43.205Z,7.15
2023-04-18T00:57:43.195Z,7.15
2023-04-18T00:58:43.187Z,7.13
2023-04-18T00:59:43.234Z,7.08
2023-04-18T01:00:43.183Z,7.09
2023-04-18T01:01:43.190Z,7.12
2023-04-18T01:02:43.396Z,7.13
2023-04-18T01:03:50.784Z,7.15
2023-04-18T01:04:43.129Z,7.16
2023-04-18T01:05:43.148Z,7.15
2023-04-18T01:06:43.077Z,7.15
2023-04-18T01:07:43.112Z,7.13
2023-04-18T01:08:43.061Z,7.13
2023-04-18T01:09:43.088Z,7.09
2023-04-18T01:10:43.054Z,7.12
2023-04-18T01:11:43.062Z,7.15
2023-04-18T01:12:43.021Z,7.16
2023-04-18T01:13:43.065Z,7.15
2023-04-18T01:14:42.993Z,7.05
2023-04-18T01:15:43.092Z,7.01
2023-04-18T01:16:42.988Z,6.94
2023-04-18T01:17:43.059Z,6.86
2023-04-18T01:18:42.974Z,6.81
2023-04-18T01:19:42.975Z,6.79
2023-04-18T01:20:42.960Z,6.79
2023-04-18T01:21:42.937Z,6.79
2023-04-18T01:22:42.916Z,6.77
2023-04-18T01:23:42.937Z,6.73
2023-04-18T01:24:42.912Z,6.77
2023-04-18T01:25:42.908Z,6.80
2023-04-18T01:26:42.865Z,6.81
2023-04-18T01:27:42.878Z,6.83
2023-04-18T01:28:42.873Z,6.83
2023-04-18T01:29:42.859Z,6.86
2023-04-18T01:30:42.824Z,6.87
2023-04-18T01:31:42.952Z,6.87
2023-04-18T01:32:42.858Z,6.87
2023-04-18T01:33:42.829Z,6.84
2023-04-18T01:34:42.773Z,6.84
2023-04-18T01:35:42.812Z,6.86
2023-04-18T01:36:42.762Z,6.86
2023-04-18T01:37:42.790Z,6.86
2023-04-18T01:38:42.755Z,6.87
2023-04-18T01:39:42.758Z,6.90
2023-04-18T01:40:42.723Z,6.91
2023-04-18T01:41:42.758Z,6.95
2023-04-18T01:42:42.700Z,6.95
2023-04-18T01:43:42.723Z,6.99
2023-04-18T01:44:42.665Z,6.99
2023-04-18T01:45:42.689Z,7.01
2023-04-18T01:46:43.670Z,7.04
2023-04-18T01:47:42.696Z,7.04
2023-04-18T01:48:42.640Z,7.08
2023-04-18T01:49:42.682Z,7.09
2023-04-18T01:50:42.624Z,7.09
2023-04-18T01:51:42.620Z,7.13
2023-04-18T01:52:43.542Z,7.13
2023-04-18T01:53:42.601Z,7.15
2023-04-18T01:54:42.590Z,7.13
2023-04-18T01:55:42.582Z,7.15
2023-04-18T01:56:42.882Z,7.16
2023-04-18T01:57:42.570Z,7.16
2023-04-18T01:58:42.538Z,7.17
2023-04-18T01:59:42.553Z,7.20
2023-04-18T02:00:42.554Z,7.20
2023-04-18T02:01:42.530Z,7.19
2023-04-18T02:02:42.730Z,7.17
2023-04-18T02:03:42.823Z,7.15
2023-04-18T02:04:42.454Z,7.08
2023-04-18T02:05:42.493Z,7.02
2023-04-18T02:06:42.439Z,7.02
2023-04-18T02:07:42.444Z,7.04
2023-04-18T02:08:47.961Z,7.07
2023-04-18T02:09:42.445Z,7.08
2023-04-18T02:10:42.382Z,7.15
2023-04-18T02:11:42.424Z,7.19
2023-04-18T02:12:42.394Z,7.23
2023-04-18T02:13:42.385Z,7.29
2023-04-18T02:14:42.360Z,7.34
2023-04-18T02:15:42.375Z,7.37
2023-04-18T02:16:42.389Z,7.40
2023-04-18T02:17:42.477Z,7.42
2023-04-18T02:18:42.304Z,7.41
2023-04-18T02:19:42.318Z,7.40
2023-04-18T02:20:42.312Z,7.40
2023-04-18T02:21:42.299Z,7.41
2023-04-18T02:22:43.225Z,7.38
2023-04-18T02:23:42.274Z,7.38
2023-04-18T02:24:42.262Z,7.38
2023-04-18T02:25:42.261Z,7.40
2023-04-18T02:26:42.219Z,7.40
2023-04-18T02:27:42.245Z,7.42
2023-04-18T02:28:42.235Z,7.44
2023-04-18T02:29:42.172Z,7.44
2023-04-18T02:30:42.196Z,7.42
2023-04-18T02:31:42.190Z,7.41
2023-04-18T02:32:42.235Z,7.38
2023-04-18T02:33:42.146Z,7.35
2023-04-18T02:34:42.191Z,7.27
2023-04-18T02:35:42.116Z,7.20
2023-04-18T02:36:42.133Z,7.17
2023-04-18T02:37:42.106Z,7.17
2023-04-18T02:38:42.135Z,7.16
2023-04-18T02:39:42.103Z,7.15
2023-04-18T02:40:42.092Z,7.13
2023-04-18T02:41:42.085Z,7.09
2023-04-18T02:42:42.077Z,7.09
2023-04-18T02:43:42.059Z,7.13
2023-04-18T02:44:43.022Z,7.15
2023-04-18T02:45:42.038Z,7.17
2023-04-18T02:46:42.064Z,7.15
2023-04-18T02:47:51.721Z,7.17
2023-04-18T02:48:43.002Z,7.20
2023-04-18T02:49:41.977Z,7.22
2023-04-18T02:50:42.003Z,7.19
2023-04-18T02:51:41.960Z,7.17
2023-04-18T02:52:41.965Z,7.17
2023-04-18T02:53:41.938Z,7.17
2023-04-18T02:54:41.932Z,7.19
2023-04-18T02:55:41.928Z,7.23
2023-04-18T02:56:41.923Z,7.24
2023-04-18T02:57:41.871Z,7.24
2023-04-18T02:58:41.922Z,7.24
2023-04-18T02:59:41.866Z,7.31
2023-04-18T03:00:41.888Z,7.31
2023-04-18T03:01:41.888Z,7.31
2023-04-18T03:02:41.914Z,7.31
2023-04-18T03:03:41.819Z,7.34
2023-04-18T03:04:41.879Z,7.35
2023-04-18T03:05:41.818Z,7.34
2023-04-18T03:06:41.855Z,7.34
2023-04-18T03:07:41.771Z,7.37
2023-04-18T03:08:41.815Z,7.40
2023-04-18T03:09:41.734Z,7.40
2023-04-18T03:10:41.768Z,7.41
2023-04-18T03:11:41.780Z,7.35
2023-04-18T03:12:42.723Z,7.32
2023-04-18T03:13:41.737Z,7.34
2023-04-18T03:14:41.748Z,7.35
2023-04-18T03:15:41.777Z,7.34
2023-04-18T03:16:41.703Z,7.34
2023-04-18T03:17:41.747Z,7.37
2023-04-18T03:18:41.709Z,7.35
2023-04-18T03:19:41.666Z,7.34
2023-04-18T03:20:41.738Z,7.34
2023-04-18T03:21:41.615Z,7.37
2023-04-18T03:22:41.630Z,7.38
2023-04-18T03:23:41.622Z,7.41
2023-04-18T03:24:41.674Z,7.42
2023-04-18T03:25:41.565Z,7.40
2023-04-18T03:26:41.586Z,7.37
2023-04-18T03:27:41.562Z,7.35
2023-04-18T03:28:41.610Z,7.37
2023-04-18T03:29:41.552Z,7.37
2023-04-18T03:30:41.572Z,7.38
2023-04-18T03:31:41.645Z,7.34
2023-04-18T03:32:41.568Z,7.32
2023-04-18T03:33:41.524Z,7.31
2023-04-18T03:34:41.522Z,7.27
2023-04-18T03:35:41.483Z,7.31
2023-04-18T03:36:41.478Z,7.27
2023-04-18T03:37:41.453Z,7.27
2023-04-18T03:38:41.461Z,7.26
2023-04-18T03:39:41.446Z,7.27
2023-04-18T03:40:41.426Z,7.29
2023-04-18T03:41:41.409Z,7.32
2023-04-18T03:42:41.426Z,7.31
2023-04-18T03:43:41.383Z,7.29
2023-04-18T03:44:41.413Z,7.31
2023-04-18T03:45:41.361Z,7.32
2023-04-18T03:46:41.580Z,7.32
2023-04-18T03:47:41.410Z,7.32
2023-04-18T03:48:41.361Z,7.31
2023-04-18T03:49:41.627Z,7.32
2023-04-18T03:50:41.645Z,7.35
2023-04-18T03:51:41.317Z,7.34
2023-04-18T03:52:41.306Z,7.37
2023-04-18T03:53:41.262Z,7.37
2023-04-18T03:54:41.296Z,7.38
2023-04-18T03:55:41.266Z,7.40
2023-04-18T03:56:41.297Z,7.42
2023-04-18T03:57:41.484Z,7.45
2023-04-18T03:58:41.250Z,7.44
2023-04-18T03:59:41.206Z,7.44
2023-04-18T04:00:41.253Z,7.42
2023-04-18T04:01:41.236Z,7.38
2023-04-18T04:02:41.311Z,7.37
2023-04-18T04:03:41.454Z,7.35
2023-04-18T04:04:41.336Z,7.34
2023-04-18T04:05:41.170Z,7.32
2023-04-18T04:06:41.181Z,7.31
2023-04-18T04:07:41.132Z,7.29
2023-04-18T04:08:41.126Z,7.32
2023-04-18T04:09:41.110Z,7.35
2023-04-18T04:10:41.116Z,7.35
2023-04-18T04:11:41.137Z,7.35
2023-04-18T04:12:41.099Z,7.32
2023-04-18T04:13:41.061Z,7.31
2023-04-18T04:14:41.090Z,7.31
2023-04-18T04:15:41.075Z,7.27
2023-04-18T04:16:41.106Z,7.34
2023-04-18T04:17:41.053Z,7.27
2023-04-18T04:18:41.089Z,7.29
2023-04-18T04:19:41.010Z,7.27
2023-04-18T04:20:41.045Z,7.27
2023-04-18T04:21:41.031Z,7.24
2023-04-18T04:22:41.065Z,7.24
2023-04-18T04:23:40.963Z,7.26
2023-04-18T04:24:41.021Z,7.26
2023-04-18T04:25:41.673Z,7.26
2023-04-18T04:26:40.961Z,7.24
2023-04-18T04:27:41.624Z,7.26
2023-04-18T04:28:40.947Z,7.27
2023-04-18T04:29:40.909Z,7.29
2023-04-18T04:30:40.941Z,7.27
2023-04-18T04:31:40.877Z,7.26
2023-04-18T04:32:40.983Z,7.24
2023-04-18T04:33:40.847Z,7.26
2023-04-18T04:34:40.851Z,7.26
2023-04-18T04:35:40.887Z,7.27
2023-04-18T04:36:42.093Z,7.27
2023-04-18T04:37:40.817Z,7.27
2023-04-18T04:38:40.909Z,7.26
2023-04-18T04:39:40.782Z,7.26
2023-04-18T04:40:41.766Z,7.27
2023-04-18T04:41:40.925Z,7.31
2023-04-18T04:42:40.834Z,7.29
2023-04-18T04:43:40.784Z,7.26
2023-04-18T04:44:40.878Z,7.27
2023-04-18T04:45:40.787Z,7.32
2023-04-18T04:46:41.993Z,7.32
2023-04-18T04:47:40.833Z,7.32
2023-04-18T04:48:40.702Z,7.35
2023-04-18T04:49:40.665Z,7.38
2023-04-18T04:50:40.688Z,7.41
2023-04-18T04:51:40.746Z,7.38
2023-04-18T04:52:40.697Z,7.35
2023-04-18T04:53:40.697Z,7.32
2023-04-18T04:54:40.640Z,7.34
2023-04-18T04:55:40.594Z,7.35
2023-04-18T04:56:41.594Z,7.38
2023-04-18T04:57:40.599Z,7.42
2023-04-18T04:58:41.300Z,7.45
2023-04-18T04:59:40.554Z,7.45
2023-04-18T05:00:40.592Z,7.45
2023-04-18T05:01:41.326Z,7.41
2023-04-18T05:02:41.514Z,7.41
2023-04-18T05:03:40.832Z,7.42
2023-04-18T05:04:40.574Z,7.42
2023-04-18T05:05:40.496Z,7.41
2023-04-18T05:06:40.605Z,7.44
2023-04-18T05:07:40.623Z,7.45
2023-04-18T05:08:41.434Z,7.50
2023-04-18T05:09:40.481Z,7.52
2023-04-18T05:10:40.509Z,7.56
2023-04-18T05:11:40.497Z,7.55
2023-04-18T05:12:41.914Z,7.53
2023-04-18T05:13:40.421Z,7.55
2023-04-18T05:14:40.431Z,7.52
2023-04-18T05:15:40.447Z,7.53
2023-04-18T05:16:40.462Z,7.56
2023-04-18T05:17:40.378Z,7.58
2023-04-18T05:18:40.387Z,7.59
2023-04-18T05:19:40.429Z,7.55
2023-04-18T05:20:40.359Z,7.53
2023-04-18T05:21:40.355Z,7.52
2023-04-18T05:22:40.443Z,7.49
2023-04-18T05:23:40.301Z,7.47
2023-04-18T05:24:40.324Z,7.41
2023-04-18T05:25:40.285Z,7.41
2023-04-18T05:26:40.333Z,7.41
2023-04-18T05:27:41.221Z,7.41
2023-04-18T05:28:40.326Z,7.44
2023-04-18T05:29:41.216Z,7.47
2023-04-18T05:30:40.350Z,7.49
2023-04-18T05:31:40.232Z,7.47
2023-04-18T05:32:40.319Z,7.49
2023-04-18T05:33:40.250Z,7.49
2023-04-18T05:34:40.198Z,7.50
2023-04-18T05:35:40.239Z,7.52
2023-04-18T05:36:40.380Z,7.50
2023-04-18T05:37:40.149Z,7.52
2023-04-18T05:38:41.647Z,7.55
2023-04-18T05:39:40.355Z,7.53
2023-04-18T05:40:41.653Z,7.56
2023-04-18T05:41:40.157Z,7.59
2023-04-18T05:42:41.109Z,7.60
2023-04-18T05:43:40.215Z,7.60
2023-04-18T05:44:40.114Z,7.66
2023-04-18T05:45:40.084Z,7.60
2023-04-18T05:46:40.191Z,7.58
2023-04-18T05:47:40.112Z,7.56
2023-04-18T05:48:40.076Z,7.62
2023-04-18T05:49:40.034Z,7.66
2023-04-18T05:50:40.050Z,7.69
2023-04-18T05:51:40.003Z,7.69
2023-04-18T05:52:40.044Z,7.66
2023-04-18T05:53:39.981Z,7.69
2023-04-18T05:54:40.035Z,7.72
2023-04-18T05:55:39.960Z,7.71
2023-04-18T05:56:39.995Z,7.69
2023-04-18T05:57:39.945Z,7.66
2023-04-18T05:58:39.952Z,7.62
2023-04-18T05:59:39.965Z,7.60
2023-04-18T06:00:39.933Z,7.59
2023-04-18T06:01:39.901Z,7.60
2023-04-18T06:02:40.043Z,7.63
2023-04-18T06:03:40.155Z,7.60
2023-04-18T06:04:40.025Z,7.58
2023-04-18T06:05:39.896Z,7.58
2023-04-18T06:06:39.868Z,7.59
2023-04-18T06:07:39.839Z,7.60
2023-04-18T06:08:39.838Z,7.62
2023-04-18T06:09:39.832Z,7.67
2023-04-18T06:10:39.820Z,7.63
2023-04-18T06:11:39.797Z,7.58
2023-04-18T06:12:39.811Z,7.58
2023-04-18T06:13:39.768Z,7.58
2023-04-18T06:14:39.794Z,7.60
2023-04-18T06:15:39.763Z,7.63
2023-04-18T06:16:39.831Z,7.66
2023-04-18T06:17:39.796Z,7.66
2023-04-18T06:18:39.744Z,7.67
2023-04-18T06:19:39.727Z,7.71
2023-04-18T06:20:39.740Z,7.74
2023-04-18T06:21:39.687Z,7.78
2023-04-18T06:22:39.707Z,7.84
2023-04-18T06:23:39.654Z,7.87
2023-04-18T06:24:39.695Z,7.89
2023-04-18T06:25:39.633Z,7.94
2023-04-18T06:26:39.672Z,7.99
2023-04-18T06:27:39.614Z,8.02
2023-04-18T06:28:39.880Z,8.03
2023-04-18T06:29:39.610Z,8.03
2023-04-18T06:30:39.613Z,7.99
2023-04-18T06:31:39.663Z,7.94
2023-04-18T06:32:39.604Z,7.93
2023-04-18T06:33:39.574Z,7.92
2023-04-18T06:34:39.560Z,7.93
2023-04-18T06:35:39.559Z,7.92
2023-04-18T06:36:39.530Z,7.94
2023-04-18T06:37:39.519Z,7.97
2023-04-18T06:38:39.538Z,8.04
2023-04-18T06:39:39.485Z,8.10
2023-04-18T06:40:39.523Z,8.11
2023-04-18T06:41:39.491Z,8.12
2023-04-18T06:42:40.444Z,8.14
2023-04-18T06:43:44.313Z,8.12
2023-04-18T06:44:40.593Z,8.04
2023-04-18T06:45:39.496Z,8.00
2023-04-18T06:46:39.434Z,8.02
2023-04-18T06:47:39.429Z,7.99
2023-04-18T06:48:39.388Z,7.92
2023-04-18T06:49:39.439Z,7.93
2023-04-18T06:50:39.382Z,7.93
2023-04-18T06:51:39.370Z,7.97
2023-04-18T06:52:39.362Z,7.97
2023-04-18T06:53:39.378Z,8.00
2023-04-18T06:54:39.396Z,8.04
2023-04-18T06:55:39.365Z,8.04
2023-04-18T06:56:39.336Z,8.08
2023-04-18T06:57:39.319Z,8.14
2023-04-18T06:58:39.303Z,8.15
2023-04-18T06:59:39.320Z,8.18
2023-04-18T07:00:39.254Z,8.21
2023-04-18T07:01:39.377Z,8.18
2023-04-18T07:02:39.368Z,8.12
2023-04-18T07:03:39.346Z,8.14
2023-04-18T07:04:39.334Z,8.10
2023-04-18T07:05:39.237Z,8.02
2023-04-18T07:06:39.194Z,8.02
2023-04-18T07:07:39.232Z,7.97
2023-04-18T07:08:39.219Z,7.96
2023-04-18T07:09:39.183Z,7.97
2023-04-18T07:10:39.180Z,8.02
2023-04-18T07:11:39.187Z,8.03
2023-04-18T07:12:40.097Z,8.04
2023-04-18T07:13:39.180Z,8.07
2023-04-18T07:14:39.123Z,8.04
2023-04-18T07:15:39.141Z,8.08
2023-04-18T07:16:39.151Z,8.07
2023-04-18T07:17:39.135Z,8.10
2023-04-18T07:18:39.091Z,8.12
2023-04-18T07:19:39.126Z,8.17
2023-04-18T07:20:39.046Z,8.25
2023-04-18T07:21:39.060Z,8.28
2023-04-18T07:22:39.035Z,8.26
2023-04-18T07:23:39.039Z,8.22
2023-04-18T07:24:40.047Z,8.25
2023-04-18T07:25:39.964Z,8.26
2023-04-18T07:26:39.944Z,8.26
2023-04-18T07:27:38.989Z,8.26
2023-04-18T07:28:39.014Z,8.29
2023-04-18T07:29:39.076Z,8.33
2023-04-18T07:30:38.968Z,8.32
2023-04-18T07:31:39.640Z,8.33
2023-04-18T07:32:39.023Z,8.39
2023-04-18T07:33:38.943Z,8.40
2023-04-18T07:34:38.947Z,8.44
2023-04-18T07:35:38.980Z,8.47
2023-04-18T07:36:38.915Z,8.50
2023-04-18T07:37:38.909Z,8.54
2023-04-18T07:38:38.866Z,8.57
2023-04-18T07:39:38.873Z,8.63
2023-04-18T07:40:38.867Z,8.63
2023-04-18T07:41:38.858Z,8.63
2023-04-18T07:42:38.876Z,8.68
2023-04-18T07:43:38.902Z,8.72
2023-04-18T07:44:38.792Z,8.69
2023-04-18T07:45:40.267Z,8.69
2023-04-18T07:46:38.800Z,8.75
2023-04-18T07:47:38.950Z,8.78
2023-04-18T07:48:38.772Z,8.71
2023-04-18T07:49:38.751Z,8.69
2023-04-18T07:50:38.752Z,8.75
2023-04-18T07:51:38.757Z,8.79
2023-04-18T07:52:39.602Z,8.84
2023-04-18T07:53:38.834Z,8.84
2023-04-18T07:54:38.724Z,8.84
2023-04-18T07:55:38.721Z,8.81
2023-04-18T07:56:38.671Z,8.87
2023-04-18T07:57:38.676Z,8.87
2023-04-18T07:58:38.677Z,8.90
2023-04-18T07:59:38.655Z,8.88
2023-04-18T08:00:38.688Z,8.90
2023-04-18T08:01:38.705Z,8.91
2023-04-18T08:02:38.729Z,8.86
2023-04-18T08:03:38.766Z,8.78
2023-04-18T08:04:38.741Z,8.76
2023-04-18T08:05:38.770Z,8.81
2023-04-18T08:06:38.545Z,8.79
2023-04-18T08:07:38.561Z,8.86
2023-04-18T08:08:38.545Z,8.91
2023-04-18T08:09:38.550Z,8.96
2023-04-18T08:10:38.548Z,8.96
2023-04-18T08:11:38.573Z,8.93
2023-04-18T08:12:38.548Z,8.93
2023-04-18T08:13:38.533Z,8.90
2023-04-18T08:14:38.577Z,8.94
2023-04-18T08:15:38.489Z,8.93
2023-04-18T08:16:38.636Z,8.90
2023-04-18T08:17:38.521Z,8.87
2023-04-18T08:18:39.170Z,8.86
2023-04-18T08:19:38.458Z,8.83
2023-04-18T08:20:38.418Z,8.84
2023-04-18T08:21:38.498Z,8.87
2023-04-18T08:22:49.930Z,8.83
2023-04-18T08:23:39.414Z,8.75
2023-04-18T08:24:38.368Z,8.79
2023-04-18T08:25:38.394Z,8.86
2023-04-18T08:26:38.411Z,8.90
2023-04-18T08:27:38.355Z,8.93
2023-04-18T08:28:38.320Z,8.94
2023-04-18T08:29:38.344Z,9.02
2023-04-18T08:30:38.325Z,9.04
2023-04-18T08:31:38.466Z,9.10
2023-04-18T08:32:38.336Z,9.12
2023-04-18T08:33:38.344Z,9.16
2023-04-18T08:34:38.281Z,9.18
2023-04-18T08:35:38.281Z,9.24
2023-04-18T08:36:38.230Z,9.31
2023-04-18T08:37:38.238Z,9.40
2023-04-18T08:38:38.227Z,9.46
2023-04-18T08:39:38.298Z,9.45
2023-04-18T08:40:39.144Z,9.48
2023-04-18T08:41:38.235Z,9.52
2023-04-18T08:42:38.217Z,9.56
2023-04-18T08:43:38.214Z,9.58
2023-04-18T08:44:39.103Z,9.66
2023-04-18T08:45:39.160Z,9.71
2023-04-18T08:46:38.139Z,9.75
2023-04-18T08:47:38.876Z,9.76
2023-04-18T08:48:38.123Z,9.78
2023-04-18T08:49:38.127Z,9.76
2023-04-18T08:50:38.128Z,9.78
2023-04-18T08:51:38.097Z,9.83
2023-04-18T08:52:38.054Z,9.88
2023-04-18T08:53:38.089Z,9.91
2023-04-18T08:54:38.032Z,9.97
2023-04-18T08:55:38.070Z,10.00
2023-04-18T08:56:38.017Z,9.94
2023-04-18T08:57:38.035Z,9.86
2023-04-18T08:58:37.994Z,9.82
2023-04-18T08:59:38.029Z,9.83
2023-04-18T09:00:38.001Z,9.88
2023-04-18T09:01:38.028Z,9.99
2023-04-18T09:02:38.030Z,10.09
2023-04-18T09:03:38.130Z,10.12
2023-04-18T09:04:38.035Z,10.18
2023-04-18T09:05:37.960Z,10.24
2023-04-18T09:06:37.910Z,10.28
2023-04-18T09:07:37.933Z,10.28
2023-04-18T09:08:37.889Z,10.30
2023-04-18T09:09:37.935Z,10.26
2023-04-18T09:10:37.872Z,10.30
2023-04-18T09:11:37.863Z,10.28
2023-04-18T09:12:37.865Z,10.33
2023-04-18T09:13:37.844Z,10.39
2023-04-18T09:14:37.829Z,10.34
2023-04-18T09:15:37.841Z,10.28
2023-04-18T09:16:38.812Z,10.37
2023-04-18T09:17:37.875Z,10.47
2023-04-18T09:18:37.771Z,10.63
2023-04-18T09:19:37.794Z,10.77
2023-04-18T09:20:38.341Z,10.95
2023-04-18T09:21:37.761Z,11.11
2023-04-18T09:22:39.898Z,11.19
2023-04-18T09:23:37.747Z,11.27
2023-04-18T09:24:37.722Z,11.27
2023-04-18T09:25:39.834Z,11.25
2023-04-18T09:26:37.701Z,11.32
2023-04-18T09:27:37.726Z,11.34
2023-04-18T09:28:37.689Z,11.29
2023-04-18T09:29:37.694Z,11.38
2023-04-18T09:30:37.766Z,11.41
2023-04-18T09:31:37.702Z,11.36
2023-04-18T09:32:37.651Z,11.25
2023-04-18T09:33:37.680Z,11.27
2023-04-18T09:34:37.610Z,11.25
2023-04-18T09:35:37.681Z,11.25
2023-04-18T09:36:37.726Z,11.27
2023-04-18T09:37:37.618Z,11.32
2023-04-18T09:38:37.566Z,11.35
2023-04-18T09:39:37.616Z,11.25
2023-04-18T09:40:37.541Z,11.17
2023-04-18T09:41:37.555Z,11.13
2023-04-18T09:42:37.548Z,11.21
2023-04-18T09:43:37.555Z,11.19
2023-04-18T09:44:37.512Z,11.25
2023-04-18T09:45:37.530Z,11.34
2023-04-18T09:46:37.564Z,11.34
2023-04-18T09:47:38.602Z,11.28
2023-04-18T09:48:38.444Z,11.20
2023-04-18T09:49:37.475Z,11.25
2023-04-18T09:50:37.473Z,11.31
2023-04-18T09:51:37.478Z,11.36
2023-04-18T09:52:37.419Z,11.43
2023-04-18T09:53:37.485Z,11.54
2023-04-18T09:54:38.128Z,11.61
2023-04-18T09:55:37.406Z,11.65
2023-04-18T09:56:37.378Z,11.77
2023-04-18T09:57:37.437Z,11.97
2023-04-18T09:58:37.356Z,12.08
2023-04-18T09:59:37.375Z,12.12
2023-04-18T10:00:37.333Z,12.15
2023-04-18T10:01:37.358Z,12.20
2023-04-18T10:02:37.429Z,12.29
2023-04-18T10:03:37.389Z,12.34
2023-04-18T10:04:37.447Z,12.23
2023-04-18T10:06:06.313Z,12.09
2023-04-18T10:06:37.288Z,12.12
2023-04-18T10:07:37.261Z,12.06
2023-04-18T10:08:37.341Z,12.02
2023-04-18T10:09:37.217Z,12.04
2023-04-18T10:10:38.953Z,12.02
2023-04-18T10:11:37.211Z,11.99
2023-04-18T10:12:37.221Z,11.90
2023-04-18T10:13:37.222Z,11.93
2023-04-18T10:14:37.192Z,11.87
2023-04-18T10:15:37.218Z,11.86
2023-04-18T10:16:38.086Z,11.93
2023-04-18T10:17:37.411Z,11.97
2023-04-18T10:18:37.312Z,11.97
2023-04-18T10:19:37.116Z,12.02
2023-04-18T10:20:37.171Z,12.08
2023-04-18T10:21:37.109Z,12.15
2023-04-18T10:22:37.100Z,12.21
2023-04-18T10:23:37.185Z,12.12
2023-04-18T10:24:37.305Z,12.01
2023-04-18T10:25:38.002Z,12.13
2023-04-18T10:26:38.013Z,12.19
2023-04-18T10:27:38.176Z,12.20
2023-04-18T10:28:37.167Z,12.21
2023-04-18T10:29:38.000Z,12.26
2023-04-18T10:30:37.011Z,12.27
2023-04-18T10:31:37.053Z,12.24
2023-04-18T10:32:37.101Z,12.31
2023-04-18T10:33:37.164Z,12.26
2023-04-18T10:34:38.023Z,12.19
2023-04-18T10:35:39.248Z,12.08
2023-04-18T10:36:37.029Z,12.12
2023-04-18T10:37:36.921Z,12.11
2023-04-18T10:38:36.952Z,12.20
2023-04-18T10:39:36.937Z,12.33
2023-04-18T10:40:36.922Z,12.38
2023-04-18T10:41:36.919Z,12.44
2023-04-18T10:42:36.894Z,12.44
2023-04-18T10:43:36.858Z,12.33
2023-04-18T10:44:36.923Z,12.19
2023-04-18T10:45:36.897Z,12.12
2023-04-18T10:46:36.976Z,12.20
2023-04-18T10:47:36.897Z,12.21
2023-04-18T10:48:38.533Z,12.13
2023-04-18T10:49:36.811Z,12.06
2023-04-18T10:50:36.874Z,12.12
2023-04-18T10:51:36.846Z,12.21
2023-04-18T10:52:36.779Z,12.30
2023-04-18T10:53:36.762Z,12.33
2023-04-18T10:54:36.807Z,12.30
2023-04-18T10:55:36.755Z,12.30
2023-04-18T10:56:36.888Z,12.38
2023-04-18T10:57:36.733Z,12.44
2023-04-18T10:58:36.784Z,12.49
2023-04-18T10:59:36.754Z,12.48
2023-04-18T11:00:36.747Z,12.39
2023-04-18T11:01:36.801Z,12.26
2023-04-18T11:02:36.905Z,12.29
2023-04-18T11:03:36.801Z,12.31
2023-04-18T11:04:36.703Z,12.37
2023-04-18T11:05:36.687Z,12.37
2023-04-18T11:06:36.622Z,12.41
2023-04-18T11:07:36.647Z,12.45
2023-04-18T11:08:36.658Z,12.52
2023-04-18T11:09:36.607Z,12.56
2023-04-18T11:10:36.572Z,12.60
2023-04-18T11:11:36.564Z,12.62
2023-04-18T11:12:37.596Z,12.70
2023-04-18T11:13:36.767Z,12.70
2023-04-18T11:14:36.524Z,12.67
2023-04-18T11:15:37.190Z,12.63
2023-04-18T11:16:36.592Z,12.63
2023-04-18T11:17:38.073Z,12.62
2023-04-18T11:18:36.558Z,12.60
2023-04-18T11:19:36.534Z,12.62
2023-04-18T11:20:36.464Z,12.66
2023-04-18T11:21:36.526Z,12.66
2023-04-18T11:22:36.429Z,12.59
2023-04-18T11:23:36.541Z,12.60
2023-04-18T11:24:36.494Z,12.62
2023-04-18T11:25:36.559Z,12.67
2023-04-18T11:26:37.247Z,12.56
2023-04-18T11:27:36.421Z,12.56
2023-04-18T11:28:36.360Z,12.59
2023-04-18T11:29:36.433Z,12.63
2023-04-18T11:30:36.414Z,12.67
2023-04-18T11:31:36.371Z,12.59
2023-04-18T11:32:36.435Z,12.59
2023-04-18T11:33:36.348Z,12.59
2023-04-18T11:34:36.321Z,12.54
2023-04-18T11:35:36.434Z,12.52
2023-04-18T11:36:36.294Z,12.57
2023-04-18T11:37:36.303Z,12.54
2023-04-18T11:38:36.293Z,12.49
2023-04-18T11:39:36.263Z,12.51
2023-04-18T11:40:36.275Z,12.56
2023-04-18T11:41:37.222Z,12.48
2023-04-18T11:42:36.225Z,12.41
2023-04-18T11:43:36.279Z,12.42
2023-04-18T11:44:36.480Z,12.37
2023-04-18T11:45:36.204Z,12.41
2023-04-18T11:46:36.277Z,12.45
2023-04-18T11:47:36.219Z,12.52
2023-04-18T11:48:36.372Z,12.48
2023-04-18T11:49:36.173Z,12.49
2023-04-18T11:50:36.147Z,12.52
2023-04-18T11:51:36.214Z,12.64
2023-04-18T11:52:36.131Z,12.70
2023-04-18T11:53:36.142Z,12.74
2023-04-18T11:54:36.082Z,12.81
2023-04-18T11:55:36.104Z,12.70
2023-04-18T11:56:36.904Z,12.67
2023-04-18T11:57:36.091Z,12.64
2023-04-18T11:58:36.035Z,12.56
2023-04-18T11:59:36.087Z,12.63
2023-04-18T12:00:36.034Z,12.67
2023-04-18T12:01:36.037Z,12.67
2023-04-18T12:02:36.153Z,12.70
2023-04-18T12:03:36.251Z,12.77
2023-04-18T12:04:36.201Z,12.78
2023-04-18T12:05:36.278Z,12.79
2023-04-18T12:06:36.002Z,12.75
2023-04-18T12:07:35.990Z,12.69
2023-04-18T12:08:35.961Z,12.62
2023-04-18T12:09:35.994Z,12.51
2023-04-18T12:10:35.921Z,12.42
2023-04-18T12:11:37.135Z,12.33
2023-04-18T12:12:35.936Z,12.30
2023-04-18T12:13:36.574Z,12.24
2023-04-18T12:14:35.900Z,12.30
2023-04-18T12:15:35.924Z,12.27
2023-04-18T12:16:35.996Z,12.31
2023-04-18T12:17:35.930Z,12.41
2023-04-18T12:18:35.953Z,12.45
2023-04-18T12:19:35.863Z,12.45
2023-04-18T12:20:35.887Z,12.44
2023-04-18T12:21:36.105Z,12.37
2023-04-18T12:22:36.807Z,12.38
2023-04-18T12:23:36.443Z,12.38
2023-04-18T12:24:36.588Z,12.34
2023-04-18T12:25:35.794Z,12.37
2023-04-18T12:26:35.775Z,12.37
2023-04-18T12:27:35.767Z,12.38
2023-04-18T12:28:35.801Z,12.44
2023-04-18T12:29:35.766Z,12.42
2023-04-18T12:30:37.641Z,12.31
2023-04-18T12:31:35.794Z,12.31
2023-04-18T12:32:35.927Z,12.41
2023-04-18T12:33:35.786Z,12.48
2023-04-18T12:34:35.789Z,12.62
2023-04-18T12:35:35.808Z,12.64
2023-04-18T12:36:36.662Z,12.59
2023-04-18T12:37:35.654Z,12.59
2023-04-18T12:38:35.682Z,12.63
2023-04-18T12:39:35.675Z,12.56
2023-04-18T12:40:35.603Z,12.62
2023-04-18T12:41:35.836Z,12.67
2023-04-18T12:42:35.577Z,12.69
2023-04-18T12:43:35.646Z,12.64
2023-04-18T12:44:35.557Z,12.64
2023-04-18T12:45:37.240Z,12.62
2023-04-18T12:46:36.500Z,12.64
2023-04-18T12:47:35.671Z,12.66
2023-04-18T12:48:35.532Z,12.70
2023-04-18T12:49:35.578Z,12.77
2023-04-18T12:50:35.691Z,12.77
2023-04-18T12:51:35.557Z,12.75
2023-04-18T12:52:35.510Z,12.75
2023-04-18T12:53:35.834Z,12.71
2023-04-18T12:54:37.841Z,12.70
2023-04-18T12:55:35.525Z,12.75
2023-04-18T12:56:35.514Z,12.82
2023-04-18T12:57:35.449Z,12.85
2023-04-18T12:58:35.428Z,12.74
2023-04-18T12:59:35.554Z,12.66
2023-04-18T13:00:35.446Z,12.64
2023-04-18T13:01:35.484Z,12.60
2023-04-18T13:02:35.672Z,12.45
2023-04-18T13:03:35.514Z,12.42
2023-04-18T13:04:35.571Z,12.46
2023-04-18T13:05:35.440Z,12.56
2023-04-18T13:06:35.380Z,12.63
2023-04-18T13:07:36.303Z,12.70
2023-04-18T13:08:35.378Z,12.77
2023-04-18T13:09:35.303Z,12.71
2023-04-18T13:10:35.280Z,12.70